Time;durP1;ratioP1;P1;durP2;ratioP2;P2;SDS_P1;SDS_P2;PMS_P1;PMS_P2;Temp;Humidity;BMP_temperature;BMP_pressure;BME280_temperature;BME280_humidity;BME280_pressure;Samples;Min_cycle;Max_cycle;Signal;HPM_P1;HPM_P2
2022/02/11 04:53:54;;;;;;;2.67;1.48;;;4.50;99.90;;;;;;5076919;23;20292;-80
2022/02/11 04:56:12;;;;;;;2.95;1.60;;;4.50;99.90;;;;;;4956503;29;20055;-85
2022/02/11 05:01:24;;;;;;;3.58;2.10;;;4.40;99.90;;;;;;4992565;28;20061;-84
2022/02/11 05:03:51;;;;;;;4.03;1.83;;;4.30;99.90;;;;;;4996319;28;20081;-88
2022/02/11 05:06:21;;;;;;;2.88;1.70;;;4.30;99.90;;;;;;4996286;28;20109;-84
2022/02/11 05:08:50;;;;;;;3.42;2.10;;;4.20;99.90;;;;;;4997210;28;20054;-90
2022/02/11 05:11:18;;;;;;;3.60;2.45;;;4.20;99.90;;;;;;4997375;28;20061;-90
2022/02/11 05:13:45;;;;;;;3.88;2.25;;;4.10;99.90;;;;;;4993001;28;20477;-96
2022/02/11 05:16:12;;;;;;;3.45;2.00;;;4.00;99.90;;;;;;4981751;28;20117;-90
2022/02/11 05:18:41;;;;;;;3.58;2.03;;;4.00;99.90;;;;;;4982634;28;20078;-90
2022/02/11 05:21:09;;;;;;;3.75;2.50;;;4.00;99.90;;;;;;4985459;28;20393;-90
2022/02/11 05:23:36;;;;;;;4.63;2.55;;;4.00;99.90;;;;;;4984467;28;20062;-89
2022/02/11 05:26:04;;;;;;;4.15;2.80;;;3.90;99.90;;;;;;5002499;28;20050;-82
2022/02/11 05:28:32;;;;;;;3.90;2.67;;;3.90;99.90;;;;;;4999012;28;20112;-83
2022/02/11 05:30:59;;;;;;;4.57;2.75;;;3.90;99.90;;;;;;4997024;28;20123;-85
2022/02/11 05:33:27;;;;;;;5.40;3.22;;;3.90;99.90;;;;;;4979109;28;20046;-84
2022/02/11 05:35:54;;;;;;;3.92;2.70;;;3.90;99.90;;;;;;4979031;28;20472;-86
2022/02/11 05:38:22;;;;;;;5.10;2.83;;;3.90;99.90;;;;;;4978634;28;20109;-81
2022/02/11 05:40:49;;;;;;;4.22;2.58;;;3.90;99.90;;;;;;4978586;28;20142;-81
2022/02/11 05:43:18;;;;;;;4.32;2.75;;;3.90;99.90;;;;;;4978970;28;20054;-83
2022/02/11 05:45:45;;;;;;;4.60;3.35;;;3.80;99.90;;;;;;4978327;28;20057;-80
2022/02/11 05:48:12;;;;;;;4.03;2.80;;;3.80;99.90;;;;;;4978380;28;20051;-82
2022/02/11 05:50:39;;;;;;;7.10;2.97;;;3.80;99.90;;;;;;4978947;28;20126;-84
2022/02/11 05:53:09;;;;;;;5.32;3.17;;;3.70;99.90;;;;;;4978482;28;20051;-81
2022/02/11 05:55:37;;;;;;;4.70;2.90;;;3.70;99.90;;;;;;4978498;28;20077;-84
2022/02/11 05:58:04;;;;;;;5.57;2.97;;;3.70;99.90;;;;;;4978352;28;20085;-81
2022/02/11 06:00:35;;;;;;;6.00;3.20;;;3.70;99.90;;;;;;4977244;28;20138;-81
2022/02/11 06:03:02;;;;;;;6.00;3.13;;;3.70;99.90;;;;;;4978610;28;20061;-82
2022/02/11 06:05:30;;;;;;;5.43;2.92;;;3.70;99.90;;;;;;4978053;28;20129;-82
2022/02/11 06:07:57;;;;;;;4.80;3.10;;;3.70;99.90;;;;;;4977880;28;20126;-82
2022/02/11 06:10:24;;;;;;;5.20;3.00;;;3.70;99.90;;;;;;4978122;28;20139;-80
2022/02/11 06:12:51;;;;;;;5.63;2.97;;;3.70;99.90;;;;;;4978103;28;20452;-81
2022/02/11 06:15:18;;;;;;;5.97;3.17;;;3.70;99.90;;;;;;4977503;28;20070;-84
2022/02/11 06:17:47;;;;;;;5.97;3.00;;;3.70;99.90;;;;;;4976916;28;20141;-82
2022/02/11 06:20:14;;;;;;;5.95;3.33;;;3.70;99.90;;;;;;4977986;28;20058;-80
2022/02/11 06:22:44;;;;;;;6.03;3.10;;;3.70;99.90;;;;;;4977343;28;20043;-82
2022/02/11 06:25:11;;;;;;;7.38;3.40;;;3.70;99.90;;;;;;4977698;28;20098;-83
2022/02/11 06:27:38;;;;;;;4.70;3.00;;;3.70;99.90;;;;;;4960509;28;20054;-83
2022/02/11 06:30:07;;;;;;;4.75;3.10;;;3.70;99.90;;;;;;4977468;28;20133;-82
2022/02/11 06:32:37;;;;;;;6.18;3.40;;;3.70;99.90;;;;;;4977536;28;20551;-82
2022/02/11 06:35:11;;;;;;;5.57;3.50;;;3.70;99.90;;;;;;4960806;28;20492;-81
2022/02/11 06:37:38;;;;;;;6.28;3.65;;;3.70;99.90;;;;;;4977729;28;20377;-81
2022/02/11 06:40:07;;;;;;;5.32;3.58;;;3.70;99.90;;;;;;4960356;28;20051;-81
2022/02/11 06:42:34;;;;;;;7.18;4.30;;;3.60;99.90;;;;;;4977604;28;20055;-81
2022/02/11 06:45:02;;;;;;;5.38;3.70;;;3.60;99.90;;;;;;4977938;28;20053;-85
2022/02/11 06:47:29;;;;;;;5.95;3.85;;;3.60;99.90;;;;;;4979463;28;20054;-85
2022/02/11 06:49:57;;;;;;;6.22;3.75;;;3.60;99.90;;;;;;4984579;28;20075;-83
2022/02/11 06:52:25;;;;;;;5.00;3.13;;;3.60;99.90;;;;;;4979356;28;20050;-84
2022/02/11 06:54:53;;;;;;;5.25;3.45;;;3.60;99.90;;;;;;4980087;28;20097;-84
2022/02/11 06:57:20;;;;;;;8.65;3.97;;;3.70;99.90;;;;;;4979523;28;20134;-85
2022/02/11 06:59:47;;;;;;;6.40;3.65;;;3.70;99.90;;;;;;4979092;28;20043;-86
2022/02/11 07:02:19;;;;;;;7.57;3.60;;;3.70;99.90;;;;;;4978998;28;20591;-86
2022/02/11 07:04:47;;;;;;;6.38;3.22;;;3.70;99.90;;;;;;4978843;28;20135;-85
2022/02/11 07:07:15;;;;;;;7.88;3.50;;;3.70;99.90;;;;;;4979269;28;20143;-82
2022/02/11 07:09:43;;;;;;;6.15;3.20;;;3.70;99.90;;;;;;4979277;28;20134;-85
2022/02/11 07:12:11;;;;;;;6.65;3.10;;;3.70;99.90;;;;;;4977607;28;20137;-83
2022/02/11 07:14:39;;;;;;;6.10;3.33;;;3.70;99.90;;;;;;4960270;28;20082;-84
2022/02/11 07:17:06;;;;;;;5.80;3.00;;;3.70;99.90;;;;;;4960131;28;20126;-83
2022/02/11 07:19:35;;;;;;;5.45;2.78;;;3.70;99.90;;;;;;4976777;28;20086;-83
2022/02/11 07:22:04;;;;;;;5.03;2.50;;;3.70;99.90;;;;;;4977777;28;20058;-85
2022/02/11 07:24:31;;;;;;;5.07;2.33;;;3.70;99.90;;;;;;4960885;28;20134;-85
2022/02/11 07:27:00;;;;;;;4.18;2.38;;;3.70;99.90;;;;;;4978321;28;20137;-82
2022/02/11 07:29:27;;;;;;;4.40;2.30;;;3.70;99.90;;;;;;4977586;28;20134;-85
2022/02/11 07:31:54;;;;;;;4.40;2.10;;;3.70;99.90;;;;;;4977785;28;20556;-84
2022/02/11 07:34:21;;;;;;;5.13;2.17;;;3.60;99.90;;;;;;4977746;28;20496;-84
2022/02/11 07:36:48;;;;;;;3.85;2.10;;;3.60;99.90;;;;;;4978148;28;20583;-82
2022/02/11 07:39:15;;;;;;;3.97;2.20;;;3.60;99.90;;;;;;4977084;28;20531;-81
2022/02/11 07:41:42;;;;;;;4.35;2.40;;;3.60;99.90;;;;;;4976001;28;20131;-84
2022/02/11 07:44:10;;;;;;;4.50;2.65;;;3.60;99.90;;;;;;4977054;28;20074;-84
2022/02/11 07:46:38;;;;;;;5.75;2.35;;;3.60;99.90;;;;;;4976918;28;20110;-81
2022/02/11 07:49:05;;;;;;;5.50;2.42;;;3.60;99.90;;;;;;4977331;28;20126;-82
2022/02/11 07:51:32;;;;;;;5.63;2.78;;;3.60;99.90;;;;;;4960670;28;20497;-87
2022/02/11 07:54:00;;;;;;;5.82;3.00;;;3.60;99.90;;;;;;4978339;28;20089;-83
2022/02/11 07:56:27;;;;;;;5.30;2.70;;;3.60;99.90;;;;;;4978729;28;20086;-93
2022/02/11 07:58:54;;;;;;;5.20;3.00;;;3.60;99.90;;;;;;4962031;28;20047;-90
2022/02/11 08:01:23;;;;;;;4.82;2.65;;;3.60;99.90;;;;;;4977627;28;20468;-87
2022/02/11 08:03:51;;;;;;;5.47;2.72;;;3.60;99.90;;;;;;4963564;28;20500;-91
2022/02/11 08:06:18;;;;;;;5.50;2.85;;;3.60;99.90;;;;;;4967074;28;20046;-91
2022/02/11 08:08:45;;;;;;;5.07;2.75;;;3.60;99.90;;;;;;4980379;28;20138;-86
2022/02/11 08:11:12;;;;;;;6.40;3.30;;;3.70;99.90;;;;;;4977575;28;20138;-85
2022/02/11 08:13:40;;;;;;;5.55;3.10;;;3.70;99.90;;;;;;4976930;28;20047;-95
2022/02/11 08:16:07;;;;;;;5.72;2.92;;;3.80;99.90;;;;;;4977084;28;20102;-87
2022/02/11 08:18:36;;;;;;;5.40;2.70;;;3.80;99.90;;;;;;4977109;28;20059;-85
2022/02/11 08:21:04;;;;;;;5.40;2.80;;;3.80;99.90;;;;;;4976954;28;20106;-83
2022/02/11 08:23:31;;;;;;;5.80;2.60;;;3.90;99.90;;;;;;4976545;28;20047;-84
2022/02/11 08:25:58;;;;;;;5.35;2.53;;;3.90;99.90;;;;;;4977111;28;20461;-84
2022/02/11 08:28:26;;;;;;;4.70;2.45;;;3.90;99.90;;;;;;4976723;28;20089;-85
2022/02/11 08:30:53;;;;;;;6.35;2.88;;;3.90;99.90;;;;;;4976801;28;20476;-83
2022/02/11 08:33:23;;;;;;;5.75;2.20;;;4.00;99.90;;;;;;4976889;28;20109;-83
2022/02/11 08:35:55;;;;;;;5.50;2.38;;;4.10;99.90;;;;;;4976099;28;20415;-91
2022/02/11 08:38:23;;;;;;;5.53;2.50;;;4.10;99.90;;;;;;4976750;28;20458;-84
2022/02/11 08:40:50;;;;;;;5.15;2.60;;;4.20;99.90;;;;;;4947012;28;20059;-84
2022/02/11 08:43:19;;;;;;;6.05;2.47;;;4.30;99.90;;;;;;4957056;29;20112;-83
2022/02/11 08:45:47;;;;;;;4.03;1.90;;;4.30;99.90;;;;;;4956991;29;20047;-83
2022/02/11 08:48:16;;;;;;;6.20;2.70;;;4.40;99.90;;;;;;4956494;29;20133;-84
2022/02/11 08:50:45;;;;;;;4.03;2.25;;;4.40;99.90;;;;;;4956960;29;20090;-86
2022/02/11 08:53:14;;;;;;;5.50;2.55;;;4.40;99.90;;;;;;4956894;29;20059;-85
2022/02/11 08:55:41;;;;;;;5.72;2.13;;;4.40;99.90;;;;;;4958154;29;20055;-85
2022/02/11 08:58:09;;;;;;;5.85;2.20;;;4.40;99.90;;;;;;4955990;29;20047;-84
2022/02/11 09:00:36;;;;;;;4.38;2.25;;;4.40;99.90;;;;;;4957490;29;20058;-85
2022/02/11 09:03:04;;;;;;;5.95;2.20;;;4.50;99.90;;;;;;4958464;29;20059;-94
2022/02/11 09:05:31;;;;;;;5.95;2.92;;;4.50;99.90;;;;;;4967930;29;20055;-94
2022/02/11 09:08:00;;;;;;;8.10;2.55;;;4.60;99.90;;;;;;4959893;29;20470;-88
2022/02/11 09:10:32;;;;;;;6.00;2.67;;;4.70;99.90;;;;;;4958492;29;20089;-93
2022/02/11 09:13:01;;;;;;;4.38;2.33;;;4.70;99.90;;;;;;4965725;29;20048;-86
2022/02/11 09:15:30;;;;;;;7.40;2.63;;;4.80;99.90;;;;;;4957804;29;20464;-84
2022/02/11 09:17:58;;;;;;;4.93;2.70;;;4.90;99.90;;;;;;4957499;29;20079;-84
2022/02/11 09:20:26;;;;;;;7.05;2.90;;;5.00;99.90;;;;;;4960407;29;20069;-88
2022/02/11 09:22:54;;;;;;;7.30;2.42;;;5.00;99.90;;;;;;4956942;29;20528;-85
2022/02/11 09:25:22;;;;;;;6.20;1.90;;;5.10;99.50;;;;;;4956804;29;20090;-87
2022/02/11 09:27:50;;;;;;;6.38;2.13;;;5.00;99.10;;;;;;4956207;29;20515;-83
2022/02/11 09:30:20;;;;;;;7.90;2.40;;;5.00;98.60;;;;;;4957014;29;20059;-83
2022/02/11 09:32:52;;;;;;;5.85;1.67;;;4.90;98.40;;;;;;4956428;29;20047;-84
2022/02/11 09:35:21;;;;;;;4.20;1.70;;;4.90;97.00;;;;;;4956817;29;20488;-83
2022/02/11 09:37:48;;;;;;;5.93;1.45;;;4.90;97.30;;;;;;4957997;29;20053;-86
2022/02/11 09:40:19;;;;;;;5.25;1.83;;;4.90;97.50;;;;;;4957400;29;20097;-84
2022/02/11 09:42:47;;;;;;;4.40;1.50;;;4.80;96.50;;;;;;4957445;29;20051;-89
2022/02/11 09:45:18;;;;;;;5.78;1.90;;;4.80;96.30;;;;;;4958124;29;20055;-82
2022/02/11 09:47:45;;;;;;;4.95;1.50;;;4.80;96.20;;;;;;4958250;29;20051;-84
2022/02/11 09:50:13;;;;;;;4.95;1.58;;;4.90;95.80;;;;;;4958590;29;20055;-86
2022/02/11 09:52:42;;;;;;;5.13;1.70;;;4.80;95.50;;;;;;4959192;29;20444;-89
2022/02/11 09:57:56;;;;;;;4.13;1.50;;;4.90;95.40;;;;;;4965046;29;20054;-89
2022/02/11 10:00:26;;;;;;;5.85;1.90;;;5.00;94.70;;;;;;4963132;29;20468;-94
2022/02/11 10:02:55;;;;;;;5.30;1.35;;;5.00;94.50;;;;;;4961011;29;20176;-91
2022/02/11 10:05:24;;;;;;;6.45;2.00;;;5.00;94.50;;;;;;4962024;28;20133;-94
2022/02/11 10:07:51;;;;;;;6.63;1.50;;;5.10;94.30;;;;;;4966099;29;20047;-94
2022/02/11 10:10:38;;;;;;;5.30;1.50;;;5.10;94.30;;;;;;4961587;29;20052;-89
2022/02/11 10:13:07;;;;;;;3.90;1.42;;;5.20;93.10;;;;;;4960858;29;20087;-92
2022/02/11 10:15:39;;;;;;;3.67;1.30;;;5.30;92.50;;;;;;4964568;28;20071;-85
2022/02/11 10:18:08;;;;;;;4.53;1.50;;;5.30;91.80;;;;;;4962561;29;20078;-86
2022/02/11 10:20:42;;;;;;;4.90;2.10;;;5.30;92.20;;;;;;4972165;28;20058;-84
2022/02/11 10:23:19;;;;;;;11.18;1.70;;;5.30;92.00;;;;;;4977543;28;20053;-87
2022/02/11 10:26:00;;;;;;;6.38;1.70;;;5.30;92.00;;;;;;4965668;28;20548;-84
2022/02/11 10:28:35;;;;;;;4.60;1.38;;;5.40;92.40;;;;;;4959424;29;20070;-81
2022/02/11 10:31:23;;;;;;;4.75;1.70;;;5.40;93.00;;;;;;4967725;28;20070;-83
2022/02/11 10:33:59;;;;;;;7.47;1.80;;;5.50;93.10;;;;;;4973615;28;20081;-83
2022/02/11 10:36:28;;;;;;;6.90;1.60;;;5.60;93.30;;;;;;4970506;28;20046;-82
2022/02/11 10:39:12;;;;;;;5.15;1.90;;;5.60;93.40;;;;;;4977429;28;20137;-84
2022/02/11 10:41:42;;;;;;;3.42;1.35;;;5.70;93.20;;;;;;4977219;28;20141;-85
2022/02/11 10:44:12;;;;;;;7.63;1.77;;;5.70;92.80;;;;;;4980859;28;20423;-85
2022/02/11 10:46:54;;;;;;;4.97;1.48;;;5.70;92.40;;;;;;4992994;28;20047;-86
2022/02/11 10:49:33;;;;;;;6.38;1.70;;;5.70;92.50;;;;;;4989392;28;20109;-87
2022/02/11 10:52:12;;;;;;;6.40;2.00;;;5.70;91.80;;;;;;4984852;28;20079;-85
2022/02/11 10:54:39;;;;;;;5.00;2.00;;;5.70;91.60;;;;;;4978523;28;20126;-84
2022/02/11 10:57:09;;;;;;;6.43;1.70;;;5.70;91.80;;;;;;4979865;28;20111;-80
2022/02/11 10:59:39;;;;;;;4.50;1.83;;;5.70;92.60;;;;;;4977720;28;20047;-85
2022/02/11 11:02:11;;;;;;;5.75;2.13;;;5.70;92.40;;;;;;4978471;28;20078;-84
2022/02/11 11:04:38;;;;;;;5.60;1.90;;;5.70;92.10;;;;;;4979901;28;20138;-85
2022/02/11 11:07:07;;;;;;;5.95;2.15;;;5.80;92.10;;;;;;4996449;28;20078;-91
2022/02/11 11:09:37;;;;;;;5.78;2.72;;;5.80;92.40;;;;;;4989913;28;20424;-86
2022/02/11 11:12:06;;;;;;;9.23;2.60;;;5.80;92.40;;;;;;4976930;28;20035;-84
2022/02/11 11:14:34;;;;;;;8.57;3.05;;;5.80;92.10;;;;;;4987908;28;20074;-93
2022/02/11 11:17:03;;;;;;;6.28;1.90;;;5.70;92.00;;;;;;4986864;28;20089;-91
2022/02/11 11:19:37;;;;;;;5.90;2.03;;;5.70;91.70;;;;;;4981322;28;20093;-81
2022/02/11 11:22:14;;;;;;;5.07;1.80;;;5.70;91.90;;;;;;4988141;28;20074;-96
2022/02/11 11:24:48;;;;;;;4.72;1.70;;;5.70;92.30;;;;;;4973154;28;20057;-83
2022/02/11 11:27:41;;;;;;;8.18;2.08;;;5.60;92.00;;;;;;4980107;28;20063;-90
2022/02/11 11:30:27;;;;;;;4.55;1.85;;;5.70;92.10;;;;;;4960755;29;20061;-83
2022/02/11 11:33:23;;;;;;;4.63;1.70;;;5.60;92.40;;;;;;4960226;29;20118;-84
2022/02/11 11:36:14;;;;;;;5.53;2.20;;;5.60;92.90;;;;;;4964890;29;20082;-90
2022/02/11 11:38:52;;;;;;;5.15;1.83;;;5.70;92.80;;;;;;4959775;29;20236;-83
2022/02/11 11:41:24;;;;;;;5.40;1.90;;;5.60;92.40;;;;;;4973561;28;20055;-92
2022/02/11 11:43:55;;;;;;;7.93;2.20;;;5.70;92.40;;;;;;4964785;29;20083;-83
2022/02/11 11:46:37;;;;;;;5.35;1.90;;;5.70;92.40;;;;;;4958059;29;20142;-80
2022/02/11 11:49:11;;;;;;;10.05;3.45;;;5.70;92.70;;;;;;4956662;29;20071;-79
2022/02/11 11:52:08;;;;;;;4.50;1.90;;;5.70;92.40;;;;;;4974334;28;20062;-87
2022/02/11 11:54:36;;;;;;;7.63;2.00;;;5.70;92.60;;;;;;4966066;28;20493;-80
2022/02/11 11:57:04;;;;;;;7.78;3.30;;;5.60;92.50;;;;;;4974309;28;20062;-79
2022/02/11 11:59:36;;;;;;;6.45;2.15;;;5.60;92.90;;;;;;4975354;28;20141;-78
2022/02/11 12:02:06;;;;;;;5.20;1.98;;;5.60;93.10;;;;;;4974681;28;20142;-80
2022/02/11 12:04:35;;;;;;;5.18;1.70;;;5.60;93.20;;;;;;4974813;28;20142;-79
2022/02/11 12:07:07;;;;;;;5.72;1.83;;;5.60;93.40;;;;;;4965356;28;20051;-81
2022/02/11 12:09:35;;;;;;;7.60;2.05;;;5.60;93.40;;;;;;4956372;29;20089;-80
2022/02/11 12:12:05;;;;;;;6.20;2.15;;;5.60;93.30;;;;;;4956449;29;20138;-80
2022/02/11 12:14:35;;;;;;;5.57;1.50;;;5.60;93.30;;;;;;4955836;29;20188;-79
2022/02/11 12:17:05;;;;;;;5.25;1.70;;;5.60;93.10;;;;;;4955560;29;20150;-81
2022/02/11 12:19:34;;;;;;;4.75;1.60;;;5.60;93.00;;;;;;4956034;29;20130;-80
2022/02/11 12:22:01;;;;;;;4.50;1.48;;;5.60;93.10;;;;;;4957127;28;20070;-79
2022/02/11 12:27:21;;;;;;;4.97;1.42;;;5.60;93.90;;;;;;4955539;28;20054;-77
2022/02/11 12:29:53;;;;;;;5.20;1.60;;;5.60;94.00;;;;;;4955807;29;20194;-80
2022/02/11 12:32:24;;;;;;;5.10;1.98;;;5.60;93.80;;;;;;4955908;29;20126;-78
2022/02/11 12:34:57;;;;;;;7.72;3.10;;;5.60;93.80;;;;;;4955500;29;20500;-80
2022/02/11 12:37:25;;;;;;;4.40;1.98;;;5.60;93.80;;;;;;4955447;29;20142;-80
2022/02/11 12:40:14;;;;;;;6.28;1.73;;;5.60;93.80;;;;;;4955788;29;20457;-79
2022/02/11 12:42:44;;;;;;;4.45;1.52;;;5.70;93.30;;;;;;4967380;28;20135;-78
2022/02/11 12:45:13;;;;;;;6.03;1.60;;;5.60;93.60;;;;;;4974967;28;20556;-79
2022/02/11 12:47:41;;;;;;;5.18;1.40;;;5.60;93.60;;;;;;4974766;28;20141;-81
2022/02/11 12:50:10;;;;;;;6.72;1.95;;;5.60;93.90;;;;;;4974692;28;20488;-80
2022/02/11 12:52:40;;;;;;;5.18;1.88;;;5.60;94.40;;;;;;4974243;28;20126;-80
2022/02/11 12:55:16;;;;;;;4.88;1.50;;;5.70;94.20;;;;;;4974886;28;20460;-80
2022/02/11 12:57:45;;;;;;;5.43;1.75;;;5.70;93.80;;;;;;4975255;28;20086;-80
2022/02/11 13:00:20;;;;;;;5.55;2.00;;;5.60;93.80;;;;;;4974457;28;20078;-79
2022/02/11 13:02:50;;;;;;;6.45;1.98;;;5.60;93.80;;;;;;4974451;28;20484;-80
2022/02/11 13:05:23;;;;;;;6.65;1.92;;;5.60;93.60;;;;;;4974749;28;20047;-82
2022/02/11 13:07:53;;;;;;;8.02;2.20;;;5.60;93.70;;;;;;4968487;28;20051;-81
2022/02/11 13:10:24;;;;;;;5.85;2.00;;;5.60;93.70;;;;;;4959537;29;20085;-81
2022/02/11 13:12:54;;;;;;;5.05;2.00;;;5.60;93.60;;;;;;4957190;29;20142;-80
2022/02/11 13:15:27;;;;;;;4.20;1.70;;;5.60;93.50;;;;;;4959972;29;20134;-79
2022/02/11 13:17:55;;;;;;;3.80;1.80;;;5.60;93.50;;;;;;4961663;29;20065;-81
2022/02/11 13:20:27;;;;;;;5.43;1.80;;;5.50;93.60;;;;;;4962030;29;20070;-82
2022/02/11 13:22:54;;;;;;;4.90;1.60;;;5.50;93.50;;;;;;4957628;29;20090;-82
2022/02/11 13:25:23;;;;;;;5.78;1.60;;;5.60;93.20;;;;;;4955586;29;20095;-82
2022/02/11 13:27:52;;;;;;;5.60;1.85;;;5.60;93.10;;;;;;4954954;29;20106;-79
2022/02/11 13:30:26;;;;;;;4.15;1.60;;;5.70;92.60;;;;;;4955294;29;20106;-79
2022/02/11 13:32:55;;;;;;;4.22;1.45;;;5.70;91.70;;;;;;4955003;29;20134;-78
2022/02/11 13:35:23;;;;;;;5.10;1.63;;;5.70;91.40;;;;;;4954882;29;20138;-80
2022/02/11 13:37:52;;;;;;;4.25;1.40;;;5.70;91.50;;;;;;4956269;28;20054;-80
2022/02/11 13:40:25;;;;;;;4.40;1.45;;;5.80;90.10;;;;;;4970493;28;20093;-79
2022/02/11 13:43:02;;;;;;;4.35;1.45;;;5.80;90.00;;;;;;4977894;28;20058;-76
2022/02/11 13:45:31;;;;;;;3.40;1.33;;;5.80;89.70;;;;;;4977956;28;20125;-79
2022/02/11 13:48:08;;;;;;;3.13;1.20;;;6.00;88.80;;;;;;4977022;28;20146;-81
2022/02/11 13:51:06;;;;;;;4.95;1.15;;;6.00;85.50;;;;;;4975956;28;20078;-80
2022/02/11 13:53:39;;;;;;;4.35;1.33;;;6.10;85.80;;;;;;4977238;28;20050;-80
2022/02/11 13:56:10;;;;;;;4.70;1.50;;;6.10;83.70;;;;;;4977251;28;20133;-79
2022/02/11 13:58:38;;;;;;;5.35;1.30;;;6.10;84.60;;;;;;4978696;28;20500;-79
2022/02/11 14:01:25;;;;;;;5.80;1.27;;;6.10;82.80;;;;;;4977568;28;20182;-80
2022/02/11 14:03:57;;;;;;;3.60;1.27;;;6.30;83.30;;;;;;4959923;28;20050;-81
2022/02/11 14:06:24;;;;;;;2.97;1.15;;;8.30;80.10;;;;;;4958315;29;20138;-76
2022/02/11 14:08:53;;;;;;;5.72;1.00;;;11.10;68.20;;;;;;4959043;28;20483;-78
2022/02/11 14:11:22;;;;;;;4.20;1.00;;;13.50;56.50;;;;;;4983363;28;20046;-77
2022/02/11 14:13:49;;;;;;;2.45;0.90;;;15.50;48.70;;;;;;4996909;28;20052;-77
2022/02/11 14:16:18;;;;;;;4.45;1.17;;;17.10;44.90;;;;;;4991350;28;20077;-78
2022/02/11 14:18:46;;;;;;;4.35;1.10;;;18.40;41.80;;;;;;4977263;28;20065;-78
2022/02/11 14:21:15;;;;;;;3.10;1.00;;;19.20;39.20;;;;;;4977170;28;20182;-80
2022/02/11 14:23:42;;;;;;;3.67;1.13;;;19.00;38.30;;;;;;4966826;28;20077;-78
2022/02/11 14:26:09;;;;;;;3.60;1.23;;;17.50;39.10;;;;;;4977175;28;20134;-78
2022/02/11 14:28:38;;;;;;;3.55;1.23;;;15.70;41.40;;;;;;4977019;28;20137;-79
2022/02/11 14:31:07;;;;;;;4.28;1.20;;;14.10;43.80;;;;;;4976960;28;20475;-78
2022/02/11 14:33:34;;;;;;;4.18;1.20;;;12.80;46.30;;;;;;4976941;28;20071;-78
2022/02/11 14:36:01;;;;;;;4.00;1.17;;;11.60;48.30;;;;;;4976295;28;20047;-80
2022/02/11 14:38:29;;;;;;;4.00;1.30;;;10.60;49.90;;;;;;4975092;28;20137;-81
2022/02/11 14:43:42;;;;;;;3.15;1.20;;;9.60;53.40;;;;;;4977037;28;20058;-80
2022/02/11 14:46:09;;;;;;;5.05;1.00;;;9.50;53.50;;;;;;4976620;28;20053;-78
2022/02/11 14:48:36;;;;;;;5.13;1.10;;;9.70;54.30;;;;;;4976092;28;20468;-78
2022/02/11 14:51:03;;;;;;;3.22;1.20;;;11.40;52.80;;;;;;4976159;28;20448;-76
2022/02/11 14:53:30;;;;;;;3.08;1.05;;;13.40;49.20;;;;;;4981791;28;20061;-77
2022/02/11 14:55:57;;;;;;;3.70;1.45;;;15.40;46.20;;;;;;4977129;28;20496;-78
2022/02/11 14:58:24;;;;;;;5.20;1.20;;;16.60;43.10;;;;;;4976435;28;20047;-79
2022/02/11 15:00:53;;;;;;;4.07;1.30;;;17.40;43.80;;;;;;4976381;28;20078;-79
2022/02/11 15:03:20;;;;;;;4.15;1.20;;;18.30;41.30;;;;;;4976098;28;20086;-80
2022/02/11 15:05:47;;;;;;;4.38;1.40;;;19.00;40.80;;;;;;4976400;28;20556;-78
2022/02/11 15:08:14;;;;;;;3.75;1.23;;;18.90;39.90;;;;;;4976337;28;20142;-78
2022/02/11 15:10:41;;;;;;;4.93;1.65;;;18.00;42.80;;;;;;4976383;28;20145;-79
2022/02/11 15:13:09;;;;;;;4.57;1.42;;;16.50;41.20;;;;;;4959210;28;20058;-80
2022/02/11 15:15:38;;;;;;;5.22;1.52;;;15.20;43.50;;;;;;4956383;29;20055;-78
2022/02/11 15:18:06;;;;;;;5.72;1.50;;;13.90;46.30;;;;;;4956726;28;20134;-77
2022/02/11 15:20:35;;;;;;;4.13;1.17;;;12.80;47.20;;;;;;4957864;29;20051;-79
2022/02/11 15:23:02;;;;;;;3.78;1.27;;;12.00;48.60;;;;;;4956968;29;20142;-80
2022/02/11 15:25:29;;;;;;;4.57;1.30;;;11.40;50.20;;;;;;4957801;28;20556;-78
2022/02/11 15:27:56;;;;;;;5.00;1.30;;;10.80;51.60;;;;;;4966478;28;20130;-80
2022/02/11 15:30:24;;;;;;;3.83;1.30;;;10.40;53.10;;;;;;4956626;29;20082;-79
2022/02/11 15:32:51;;;;;;;4.53;1.60;;;9.90;53.80;;;;;;4970334;28;20500;-80
2022/02/11 15:35:19;;;;;;;5.80;1.60;;;9.50;72.90;;;;;;4975948;28;20145;-79
2022/02/11 15:37:46;;;;;;;5.28;1.70;;;9.20;57.70;;;;;;4976058;28;20115;-79
2022/02/11 15:40:14;;;;;;;4.65;1.60;;;8.70;57.80;;;;;;4975878;28;20134;-79
2022/02/11 15:42:41;;;;;;;5.55;1.70;;;;;;;;;;4975568;28;20085;-81
2022/02/11 15:45:09;;;;;;;4.85;1.58;;;8.20;59.40;;;;;;4975264;28;20493;-79
2022/02/11 15:47:37;;;;;;;5.25;1.65;;;8.00;60.50;;;;;;4975620;28;20492;-77
2022/02/11 15:50:05;;;;;;;4.72;1.75;;;7.80;60.90;;;;;;4975207;28;20174;-79
2022/02/11 15:52:33;;;;;;;4.40;1.48;;;7.50;60.00;;;;;;4976250;28;20142;-83
2022/02/11 15:55:01;;;;;;;6.20;1.40;;;7.30;60.20;;;;;;4974054;28;20397;-82
2022/02/11 15:57:28;;;;;;;3.33;1.30;;;7.10;61.40;;;;;;4960797;28;20047;-85
2022/02/11 15:59:55;;;;;;;3.63;1.38;;;7.00;61.70;;;;;;4964746;29;20055;-85
2022/02/11 16:02:22;;;;;;;4.05;1.45;;;6.80;62.50;;;;;;4963055;28;20407;-82
2022/02/11 16:04:50;;;;;;;4.65;1.75;;;6.80;63.10;;;;;;4959586;29;20138;-80
2022/02/11 16:07:17;;;;;;;4.10;1.48;;;6.90;64.30;;;;;;4956012;29;20310;-82
2022/02/11 16:09:45;;;;;;;6.60;1.83;;;7.00;65.00;;;;;;4956238;29;20047;-80
2022/02/11 16:12:12;;;;;;;6.97;1.90;;;6.90;66.30;;;;;;4956148;29;20043;-81
2022/02/11 16:14:39;;;;;;;5.10;1.48;;;6.80;67.90;;;;;;4966652;28;20046;-81
2022/02/11 16:17:10;;;;;;;3.92;1.60;;;6.60;68.30;;;;;;4975572;28;20104;-79
2022/02/11 16:19:38;;;;;;;4.35;1.67;;;6.50;69.50;;;;;;4974094;28;20480;-81
2022/02/11 16:22:06;;;;;;;4.10;1.42;;;6.30;70.40;;;;;;4976808;28;20129;-85
2022/02/11 16:24:33;;;;;;;4.90;1.80;;;6.40;71.40;;;;;;4976092;28;20129;-83
2022/02/11 16:27:03;;;;;;;5.95;1.70;;;6.60;71.50;;;;;;4984584;28;20093;-88
2022/02/11 16:29:33;;;;;;;6.32;1.98;;;6.60;71.60;;;;;;4969704;28;20050;-82
2022/02/11 16:32:01;;;;;;;5.72;1.60;;;6.50;72.00;;;;;;4976256;28;20061;-83
2022/02/11 16:34:29;;;;;;;4.78;1.70;;;6.50;72.30;;;;;;4974879;28;20452;-80
2022/02/11 16:36:56;;;;;;;5.70;1.48;;;6.30;72.90;;;;;;4977015;28;20092;-82
2022/02/11 16:39:25;;;;;;;4.43;1.52;;;6.30;73.50;;;;;;4963940;28;20101;-83
2022/02/11 16:41:52;;;;;;;4.72;1.65;;;6.20;73.00;;;;;;4984042;28;20134;-85
2022/02/11 16:44:22;;;;;;;5.00;1.67;;;6.10;74.00;;;;;;4973813;28;20123;-81
2022/02/11 16:46:50;;;;;;;6.93;1.70;;;6.10;73.90;;;;;;4974989;28;20492;-82
2022/02/11 16:49:18;;;;;;;6.18;1.63;;;6.00;74.10;;;;;;4973260;28;20083;-79
2022/02/11 16:51:46;;;;;;;5.25;1.70;;;6.00;74.70;;;;;;4974764;28;20073;-83
2022/02/11 16:54:14;;;;;;;3.97;1.55;;;5.90;75.20;;;;;;4975559;28;20141;-80
2022/02/11 16:56:41;;;;;;;5.50;1.55;;;5.90;75.60;;;;;;4975079;28;20129;-81
2022/02/11 16:59:09;;;;;;;4.63;1.67;;;5.80;76.10;;;;;;4970273;28;20567;-80
2022/02/11 17:01:37;;;;;;;6.15;1.55;;;5.80;75.60;;;;;;4970293;28;20145;-82
2022/02/11 17:04:06;;;;;;;5.28;1.60;;;5.80;75.70;;;;;;4972913;28;20077;-81
2022/02/11 17:06:33;;;;;;;6.05;1.45;;;5.80;76.20;;;;;;4975470;28;20057;-79
2022/02/11 17:09:00;;;;;;;6.40;1.70;;;5.80;76.70;;;;;;4974603;28;20074;-80
2022/02/11 17:11:29;;;;;;;5.32;1.70;;;5.80;77.10;;;;;;4957851;28;20111;-85
2022/02/11 17:13:56;;;;;;;4.63;1.98;;;5.80;77.80;;;;;;4966446;28;20098;-80
2022/02/11 17:16:24;;;;;;;5.80;1.70;;;5.80;78.20;;;;;;4960437;29;20460;-83
2022/02/11 17:18:52;;;;;;;5.50;1.92;;;5.70;78.00;;;;;;4970201;28;20109;-83
2022/02/11 17:21:19;;;;;;;4.25;1.70;;;5.70;78.30;;;;;;4978800;28;20081;-80
2022/02/11 17:23:46;;;;;;;5.28;1.85;;;5.70;78.60;;;;;;4978965;28;20085;-80
2022/02/11 17:26:13;;;;;;;6.20;2.22;;;5.80;79.10;;;;;;4978215;28;20070;-79
2022/02/11 17:28:40;;;;;;;6.57;2.10;;;5.80;79.80;;;;;;4978614;28;20134;-83
2022/02/11 17:31:07;;;;;;;7.43;2.35;;;5.80;81.20;;;;;;4979060;28;20137;-80
2022/02/11 17:33:34;;;;;;;10.50;2.40;;;5.70;87.80;;;;;;4980553;28;20077;-86
2022/02/11 17:36:03;;;;;;;6.30;2.17;;;5.70;90.40;;;;;;4979293;28;20536;-83
2022/02/11 17:38:31;;;;;;;7.50;2.25;;;5.70;91.40;;;;;;4978986;28;20081;-85
2022/02/11 17:40:59;;;;;;;7.35;1.90;;;5.60;92.60;;;;;;4979057;28;20113;-85
2022/02/11 17:43:27;;;;;;;5.78;2.00;;;5.60;93.50;;;;;;4968319;28;20131;-82
2022/02/11 17:45:54;;;;;;;7.95;2.75;;;5.60;94.20;;;;;;4959256;29;20138;-81
2022/02/11 17:48:21;;;;;;;6.43;2.40;;;5.50;95.00;;;;;;4959866;29;20147;-85
2022/02/11 17:50:48;;;;;;;6.40;2.03;;;5.50;95.70;;;;;;4960097;29;20051;-85
2022/02/11 17:53:17;;;;;;;6.70;2.80;;;5.40;96.10;;;;;;4959037;29;20145;-79
2022/02/11 17:55:44;;;;;;;8.70;2.72;;;5.40;96.90;;;;;;4959820;29;20150;-82
2022/02/11 17:58:12;;;;;;;7.95;2.72;;;5.40;97.40;;;;;;4959718;29;20115;-83
2022/02/11 18:00:39;;;;;;;6.60;2.50;;;5.40;97.50;;;;;;4959520;29;20058;-86
2022/02/11 18:03:06;;;;;;;6.93;2.67;;;5.30;97.90;;;;;;4960053;29;20183;-83
2022/02/11 18:05:33;;;;;;;7.38;2.90;;;5.30;98.30;;;;;;4959725;29;20560;-78
2022/02/11 18:08:00;;;;;;;6.93;2.90;;;5.20;98.70;;;;;;4959344;29;20134;-85
2022/02/11 18:10:29;;;;;;;6.68;2.72;;;5.30;99.00;;;;;;4958873;29;20142;-85